Time;durP1;ratioP1;P1;durP2;ratioP2;P2;SDS_P1;SDS_P2;PMS_P1;PMS_P2;Temp;Humidity;BMP_temperature;BMP_pressure;BME280_temperature;BME280_humidity;BME280_pressure;Samples;Min_cycle;Max_cycle;Signal;HPM_P1;HPM_P2
2024/02/19 00:01:32;;;;;;;2.50;1.83;;;8.30;99.90;8.20;100757.00;;;;4931996;28;102801;-69
2024/02/19 00:03:58;;;;;;;1.97;1.50;;;8.40;99.90;8.30;100745.00;;;;4926981;28;107645;-70
2024/02/19 00:06:24;;;;;;;3.37;1.93;;;8.40;99.90;8.30;100748.00;;;;4930188;28;118266;-68
2024/02/19 00:08:50;;;;;;;2.77;1.53;;;8.40;99.90;8.30;100746.00;;;;4928161;28;117087;-68
2024/02/19 00:11:17;;;;;;;3.57;1.60;;;8.40;99.90;8.30;100743.00;;;;4928923;28;87739;-68
2024/02/19 00:13:43;;;;;;;1.77;1.60;;;8.40;99.90;8.30;100746.00;;;;4931611;28;98208;-69
2024/02/19 00:16:10;;;;;;;2.73;1.73;;;8.40;99.90;8.30;100747.00;;;;4927516;28;89089;-69
2024/02/19 00:18:35;;;;;;;2.47;1.50;;;8.40;99.90;8.30;100742.00;;;;4933280;28;104050;-69
2024/02/19 00:21:02;;;;;;;2.37;1.50;;;8.40;99.90;8.40;100739.00;;;;4931851;28;110218;-70
2024/02/19 00:23:28;;;;;;;2.53;1.60;;;8.50;99.90;8.40;100730.00;;;;4934232;28;87992;-69
2024/02/19 00:25:55;;;;;;;2.10;1.60;;;8.40;99.90;8.40;100730.00;;;;4931178;28;87373;-68
2024/02/19 00:28:21;;;;;;;2.53;1.57;;;8.50;99.90;8.40;100715.00;;;;4930400;28;88085;-70
2024/02/19 00:30:47;;;;;;;1.23;1.13;;;8.60;99.90;8.40;100709.00;;;;4933573;28;98307;-69
2024/02/19 00:33:12;;;;;;;1.50;1.20;;;8.60;99.90;8.50;100713.00;;;;4930122;28;88955;-69
2024/02/19 00:35:38;;;;;;;4.77;1.17;;;8.60;99.90;8.50;100719.00;;;;4931356;28;107968;-70
2024/02/19 00:38:04;;;;;;;1.67;1.43;;;8.70;99.90;8.50;100705.00;;;;4931546;28;117111;-68
2024/02/19 00:40:30;;;;;;;2.57;1.70;;;8.60;99.90;8.50;100707.00;;;;4934968;28;95931;-69
2024/02/19 00:42:56;;;;;;;3.03;1.97;;;8.60;99.90;8.60;100700.00;;;;4951456;28;87950;-70
2024/02/19 00:45:21;;;;;;;1.10;0.90;;;8.60;99.90;8.60;100704.00;;;;4931358;28;117397;-70
2024/02/19 00:47:47;;;;;;;2.43;1.40;;;8.80;99.90;8.60;100695.00;;;;4948073;28;108979;-69
2024/02/19 00:50:13;;;;;;;2.17;1.80;;;8.70;99.90;8.70;100691.00;;;;4929841;28;110789;-69
2024/02/19 00:52:40;;;;;;;2.03;1.47;;;8.70;99.90;8.70;100689.00;;;;4934089;28;108963;-70
2024/02/19 00:55:07;;;;;;;1.97;1.43;;;8.80;99.90;8.70;100688.00;;;;4932743;28;88501;-70
2024/02/19 00:57:32;;;;;;;1.20;1.00;;;8.80;99.90;8.70;100684.00;;;;4930846;28;88932;-69
2024/02/19 00:59:58;;;;;;;1.43;1.23;;;8.80;99.90;8.80;100679.00;;;;4933097;28;87898;-69
2024/02/19 01:02:24;;;;;;;1.20;1.10;;;8.80;99.90;8.80;100655.00;;;;4950336;28;93186;-67
2024/02/19 01:04:53;;;;;;;3.30;1.07;;;8.90;99.90;8.80;100656.00;;;;4916911;28;109294;-68
2024/02/19 01:07:20;;;;;;;1.00;0.90;;;8.90;99.90;8.80;100660.00;;;;4930258;28;88504;-67
2024/02/19 01:09:47;;;;;;;1.20;1.10;;;8.90;99.90;8.80;100657.00;;;;4932627;28;87896;-68
2024/02/19 01:12:14;;;;;;;1.43;1.33;;;9.00;99.90;8.90;100648.00;;;;4930603;28;87764;-68
2024/02/19 01:14:41;;;;;;;1.27;1.03;;;9.00;99.90;8.90;100650.00;;;;4931107;28;103248;-69
2024/02/19 01:17:08;;;;;;;0.70;0.70;;;9.00;99.90;8.90;100649.00;;;;4931809;28;100461;-69
2024/02/19 01:19:34;;;;;;;0.67;0.67;;;9.00;99.90;9.00;100650.00;;;;4936887;28;87613;-69
2024/02/19 01:22:01;;;;;;;1.27;0.83;;;9.10;99.90;9.00;100643.00;;;;4932435;28;91428;-67
2024/02/19 01:24:26;;;;;;;0.67;0.67;;;9.10;99.90;9.00;100641.00;;;;4926663;28;87923;-68
2024/02/19 01:26:52;;;;;;;0.73;0.73;;;9.00;99.90;9.10;100633.00;;;;4928001;28;116562;-68
2024/02/19 01:29:18;;;;;;;1.70;1.17;;;9.10;99.90;9.10;100634.00;;;;4927896;28;109893;-68
2024/02/19 01:31:45;;;;;;;0.80;0.70;;;9.20;99.90;9.10;100638.00;;;;4929280;28;109321;-69
2024/02/19 01:34:11;;;;;;;0.93;0.73;;;9.20;99.90;9.20;100625.00;;;;4928664;28;89312;-70
2024/02/19 01:36:37;;;;;;;1.10;0.73;;;9.20;99.90;9.20;100623.00;;;;4929301;28;88560;-67
2024/02/19 01:39:03;;;;;;;1.20;1.10;;;9.30;99.90;9.30;100623.00;;;;4929556;28;103929;-68
2024/02/19 01:41:29;;;;;;;0.53;0.53;;;9.30;99.90;9.30;100617.00;;;;4927603;28;88160;-67
2024/02/19 01:43:54;;;;;;;1.07;0.70;;;9.30;99.90;9.30;100618.00;;;;4929072;28;88593;-69
2024/02/19 01:46:21;;;;;;;0.60;0.60;;;9.30;99.90;9.30;100607.00;;;;4932318;28;117394;-69
2024/02/19 01:48:46;;;;;;;0.50;0.50;;;9.40;99.90;9.40;100604.00;;;;4929381;28;88308;-68
2024/02/19 01:51:15;;;;;;;6.27;1.03;;;9.40;99.90;9.40;100606.00;;;;4928602;28;108963;-68
2024/02/19 01:53:43;;;;;;;0.80;0.70;;;9.50;99.90;9.40;100606.00;;;;4927737;28;108635;-68
2024/02/19 01:56:09;;;;;;;0.67;0.67;;;9.50;99.90;9.50;100601.00;;;;4911895;28;109242;-69
2024/02/19 01:58:36;;;;;;;0.47;0.47;;;9.50;99.90;9.50;100602.00;;;;4930471;28;111233;-68
2024/02/19 02:01:04;;;;;;;0.93;0.67;;;9.60;99.90;9.50;100606.00;;;;4931439;28;109635;-68
2024/02/19 02:03:30;;;;;;;0.67;0.67;;;9.50;99.90;9.50;100595.00;;;;4931570;28;88205;-69
2024/02/19 02:05:58;;;;;;;0.87;0.67;;;9.50;99.90;9.50;100598.00;;;;4928222;28;88107;-68
2024/02/19 02:08:23;;;;;;;3.30;0.70;;;9.60;99.90;9.60;100595.00;;;;4930585;28;88073;-68
2024/02/19 02:10:49;;;;;;;2.30;0.40;;;9.60;99.90;9.60;100589.00;;;;4931538;28;107838;-68
2024/02/19 02:13:18;;;;;;;0.50;0.50;;;9.70;99.90;9.60;100596.00;;;;4927707;28;117955;-69
2024/02/19 02:15:44;;;;;;;0.50;0.50;;;9.70;99.90;9.60;100568.00;;;;4926961;28;88379;-70
2024/02/19 02:18:12;;;;;;;0.97;0.40;;;9.70;99.90;9.70;100579.00;;;;4929917;28;88573;-69
2024/02/19 02:20:39;;;;;;;1.10;0.70;;;9.70;99.90;9.70;100565.00;;;;4928472;28;88958;-69
2024/02/19 02:23:05;;;;;;;0.40;0.40;;;9.70;99.90;9.70;100566.00;;;;4932589;28;87978;-68
2024/02/19 02:25:33;;;;;;;0.30;0.30;;;9.80;99.90;9.70;100577.00;;;;4928295;28;117327;-68
2024/02/19 02:27:59;;;;;;;0.30;0.30;;;9.80;99.90;9.70;100571.00;;;;4929274;28;87548;-67
2024/02/19 02:30:25;;;;;;;0.40;0.40;;;9.80;99.90;9.80;100558.00;;;;4932180;28;100763;-67
2024/02/19 02:32:55;;;;;;;0.37;0.37;;;9.80;99.90;9.80;100552.00;;;;4925462;28;118119;-67
2024/02/19 02:35:23;;;;;;;1.13;0.27;;;9.90;99.90;9.80;100565.00;;;;4929389;28;88850;-68
2024/02/19 02:37:49;;;;;;;0.60;0.50;;;9.90;99.90;9.80;100552.00;;;;4931539;28;87812;-69
2024/02/19 02:40:15;;;;;;;0.30;0.30;;;9.90;99.90;9.80;100557.00;;;;4930023;28;107892;-67
2024/02/19 02:42:40;;;;;;;0.67;0.40;;;9.90;99.90;9.80;100560.00;;;;4926599;28;110333;-68
2024/02/19 02:45:09;;;;;;;0.10;0.10;;;9.90;99.90;9.80;100554.00;;;;4929477;28;117068;-67
2024/02/19 02:47:35;;;;;;;0.53;0.23;;;9.90;99.90;9.80;100554.00;;;;4930500;28;104109;-68
2024/02/19 02:50:01;;;;;;;0.17;0.10;;;9.90;99.90;9.80;100545.00;;;;4928772;28;108895;-67
2024/02/19 02:52:27;;;;;;;0.40;0.40;;;9.90;99.90;9.90;100551.00;;;;4931953;28;117664;-66
2024/02/19 02:54:52;;;;;;;0.43;0.43;;;10.00;99.90;9.90;100549.00;;;;4929663;28;115520;-66
2024/02/19 02:57:21;;;;;;;0.37;0.37;;;9.90;99.90;9.90;100550.00;;;;4929813;28;110218;-67
2024/02/19 02:59:47;;;;;;;0.30;0.30;;;10.00;99.90;9.90;100545.00;;;;4928252;28;108791;-66
2024/02/19 03:02:15;;;;;;;0.30;0.30;;;10.00;99.90;9.90;100545.00;;;;4933331;28;88720;-68
2024/02/19 03:04:41;;;;;;;0.43;0.33;;;10.00;99.90;9.90;100540.00;;;;4934710;28;88602;-67
2024/02/19 03:07:07;;;;;;;2.00;0.30;;;10.00;99.90;9.90;100532.00;;;;4933409;28;110233;-67
2024/02/19 03:09:33;;;;;;;0.27;0.27;;;10.00;99.90;9.90;100542.00;;;;4935162;28;87840;-67
2024/02/19 03:11:58;;;;;;;0.30;0.30;;;9.90;99.90;9.90;100532.00;;;;4925262;28;118802;-68
2024/02/19 03:14:24;;;;;;;0.27;0.20;;;10.00;99.90;9.90;100525.00;;;;4933025;28;116732;-67
2024/02/19 03:16:50;;;;;;;0.20;0.20;;;10.00;99.90;9.90;100529.00;;;;4932513;28;110173;-68
2024/02/19 03:19:16;;;;;;;0.20;0.20;;;9.90;99.90;9.90;100527.00;;;;4930056;28;88146;-66
2024/02/19 03:21:42;;;;;;;0.30;0.20;;;10.00;99.90;9.90;100528.00;;;;4929542;28;88644;-66
2024/02/19 03:24:08;;;;;;;0.20;0.10;;;10.00;99.90;9.90;100514.00;;;;4931484;28;88873;-70
2024/02/19 03:26:34;;;;;;;1.20;0.40;;;10.00;99.90;10.00;100523.00;;;;4930460;28;87871;-68
2024/02/19 03:29:00;;;;;;;0.40;0.40;;;10.00;99.90;9.90;100506.00;;;;4932880;28;108080;-67
2024/02/19 03:31:26;;;;;;;0.67;0.40;;;10.00;99.90;10.00;100514.00;;;;4929077;28;88493;-67
2024/02/19 03:33:52;;;;;;;0.47;0.30;;;10.00;99.90;10.00;100502.00;;;;4927012;28;87918;-68
2024/02/19 03:36:18;;;;;;;1.60;0.23;;;10.10;99.90;10.00;100502.00;;;;4927360;28;88531;-67
2024/02/19 03:38:44;;;;;;;0.30;0.20;;;10.00;99.90;10.00;100501.00;;;;4930768;28;107395;-69
2024/02/19 03:41:12;;;;;;;0.20;0.20;;;10.10;99.90;10.00;100510.00;;;;4924946;28;104647;-68
2024/02/19 03:43:37;;;;;;;0.67;0.20;;;10.10;99.90;10.00;100501.00;;;;4932269;28;88096;-69
2024/02/19 03:46:05;;;;;;;0.30;0.27;;;10.10;99.90;10.00;100511.00;;;;4929151;28;110909;-70
2024/02/19 03:48:31;;;;;;;0.63;0.40;;;10.00;99.90;9.90;100502.00;;;;4933006;28;88838;-69
2024/02/19 03:50:57;;;;;;;0.77;0.50;;;10.00;99.90;9.80;100496.00;;;;4932386;28;88975;-68
2024/02/19 03:53:23;;;;;;;0.10;0.10;;;10.00;99.90;9.80;100501.00;;;;4930584;28;87996;-68
2024/02/19 03:55:49;;;;;;;0.40;0.40;;;9.90;99.90;9.70;100507.00;;;;4931621;28;108814;-68
2024/02/19 03:58:15;;;;;;;0.20;0.20;;;9.80;99.90;9.60;100515.00;;;;4933035;28;110060;-70
2024/02/19 04:00:41;;;;;;;0.30;0.30;;;9.70;99.90;9.50;100517.00;;;;4930568;28;90183;-71
2024/02/19 04:03:06;;;;;;;0.60;0.30;;;9.60;99.90;9.40;100518.00;;;;4933548;28;117743;-69
2024/02/19 04:05:32;;;;;;;0.20;0.20;;;9.60;99.90;9.30;100521.00;;;;4934170;28;109954;-68
2024/02/19 04:07:58;;;;;;;0.80;0.40;;;9.50;99.90;9.20;100514.00;;;;4933049;28;88168;-68
2024/02/19 04:10:24;;;;;;;0.23;0.20;;;9.30;99.90;9.10;100510.00;;;;4934766;28;107392;-70
2024/02/19 04:12:49;;;;;;;0.43;0.30;;;9.20;99.90;9.00;100514.00;;;;4932157;28;88994;-72
2024/02/19 04:15:15;;;;;;;0.20;0.20;;;9.20;99.90;8.90;100499.00;;;;4929224;28;96569;-71
2024/02/19 04:17:41;;;;;;;0.20;0.20;;;9.10;99.90;8.90;100492.00;;;;4923650;28;96714;-72
2024/02/19 04:20:08;;;;;;;0.10;0.10;;;9.00;99.90;8.80;100512.00;;;;4930996;28;117206;-73
2024/02/19 04:22:34;;;;;;;0.60;0.27;;;9.00;99.90;8.80;100517.00;;;;4933639;28;88715;-73
2024/02/19 04:25:00;;;;;;;0.30;0.30;;;8.80;99.90;8.70;100518.00;;;;4933484;28;104009;-72
2024/02/19 04:27:26;;;;;;;0.47;0.20;;;8.80;99.90;8.70;100509.00;;;;4930944;28;107686;-71
2024/02/19 04:29:51;;;;;;;0.23;0.23;;;8.80;99.90;8.60;100512.00;;;;4930890;28;117589;-72
2024/02/19 04:32:17;;;;;;;1.40;0.23;;;8.80;99.90;8.60;100517.00;;;;4931620;28;116987;-72
2024/02/19 04:34:42;;;;;;;0.50;0.23;;;8.70;99.90;8.60;100522.00;;;;4931124;28;110396;-71
2024/02/19 04:37:08;;;;;;;0.40;0.40;;;8.70;99.90;8.50;100511.00;;;;4930154;28;108300;-72
2024/02/19 04:39:34;;;;;;;0.53;0.17;;;8.60;99.90;8.50;100510.00;;;;4929579;28;88923;-71
2024/02/19 04:42:03;;;;;;;0.10;0.10;;;8.60;99.90;8.40;100522.00;;;;4927101;28;115874;-71
2024/02/19 04:44:29;;;;;;;0.00;0.00;;;8.60;99.90;8.40;100519.00;;;;4942612;28;87996;-70
2024/02/19 04:46:56;;;;;;;0.33;0.33;;;8.50;99.90;8.30;100504.00;;;;4934822;28;88787;-72
2024/02/19 04:49:22;;;;;;;0.30;0.30;;;8.50;99.90;8.30;100517.00;;;;4930811;28;88702;-70
2024/02/19 04:51:48;;;;;;;0.73;0.30;;;8.40;99.90;8.30;100519.00;;;;4933936;28;117951;-70
2024/02/19 04:54:14;;;;;;;0.13;0.13;;;8.40;99.90;8.20;100520.00;;;;4935729;28;87314;-70
2024/02/19 04:56:39;;;;;;;1.17;0.50;;;8.40;99.90;8.20;100520.00;;;;4934395;28;106711;-70
2024/02/19 04:59:05;;;;;;;0.10;0.10;;;8.30;99.90;8.20;100519.00;;;;4931942;28;117868;-70
2024/02/19 05:01:31;;;;;;;2.33;0.47;;;8.30;99.90;8.20;100536.00;;;;4929940;28;116064;-71
2024/02/19 05:03:58;;;;;;;0.60;0.33;;;8.30;99.90;8.10;100538.00;;;;4936889;28;88017;-70
2024/02/19 05:06:24;;;;;;;0.60;0.33;;;8.30;99.90;8.10;100537.00;;;;4934049;28;98062;-70
2024/02/19 05:08:50;;;;;;;0.20;0.20;;;8.30;99.90;8.10;100524.00;;;;4934406;28;87885;-71
2024/02/19 05:11:16;;;;;;;0.40;0.40;;;8.30;99.90;8.10;100534.00;;;;4930554;28;88722;-69
2024/02/19 05:13:42;;;;;;;0.47;0.37;;;8.30;99.90;8.10;100538.00;;;;4934001;28;95034;-70
2024/02/19 05:16:08;;;;;;;0.40;0.30;;;8.20;99.90;8.10;100540.00;;;;4933044;28;89067;-71
2024/02/19 05:18:35;;;;;;;1.50;0.40;;;8.20;99.90;8.10;100541.00;;;;4930886;28;98318;-71
2024/02/19 05:21:02;;;;;;;0.40;0.40;;;8.20;99.90;8.00;100541.00;;;;4929238;28;87945;-69
2024/02/19 05:23:31;;;;;;;0.30;0.30;;;8.10;99.90;8.00;100553.00;;;;4929210;28;88179;-68
2024/02/19 05:25:57;;;;;;;0.50;0.43;;;8.10;99.90;7.90;100548.00;;;;4936085;28;88937;-69
2024/02/19 05:28:23;;;;;;;0.50;0.50;;;8.10;99.90;7.90;100552.00;;;;4931323;28;88836;-69
2024/02/19 05:30:48;;;;;;;0.50;0.30;;;8.00;99.90;7.90;100554.00;;;;4933104;28;116316;-67
2024/02/19 05:33:18;;;;;;;0.90;0.60;;;8.10;99.90;7.90;100561.00;;;;4928389;28;110463;-68
2024/02/19 05:35:45;;;;;;;0.87;0.40;;;8.00;99.90;7.90;100561.00;;;;4928305;28;88082;-69
2024/02/19 05:38:12;;;;;;;0.60;0.37;;;7.90;99.90;7.80;100567.00;;;;4937081;28;89004;-68
2024/02/19 05:40:41;;;;;;;0.60;0.50;;;8.00;99.90;7.80;100569.00;;;;4932527;28;88416;-68
2024/02/19 05:43:06;;;;;;;3.00;0.30;;;8.00;99.90;7.80;100570.00;;;;4929479;28;87133;-70
2024/02/19 05:45:32;;;;;;;0.30;0.30;;;8.00;99.90;7.80;100574.00;;;;4929908;28;108529;-71
2024/02/19 05:47:59;;;;;;;0.37;0.37;;;8.00;99.90;7.80;100580.00;;;;4929504;28;90068;-69
2024/02/19 05:50:27;;;;;;;0.70;0.43;;;8.10;99.90;7.80;100589.00;;;;4928518;28;90223;-69
2024/02/19 05:52:52;;;;;;;1.30;1.00;;;8.00;99.90;7.80;100588.00;;;;4929854;28;88225;-69
2024/02/19 05:55:18;;;;;;;0.50;0.50;;;7.90;99.90;7.70;100582.00;;;;4929511;28;107050;-71
2024/02/19 05:57:44;;;;;;;0.40;0.40;;;7.90;99.90;7.70;100594.00;;;;4928943;28;116227;-71
2024/02/19 06:00:13;;;;;;;1.67;0.87;;;7.80;99.90;7.70;100597.00;;;;4934026;28;116299;-70
2024/02/19 06:02:41;;;;;;;0.67;0.30;;;7.90;99.90;7.60;100583.00;;;;4928306;28;88780;-69
2024/02/19 06:05:10;;;;;;;0.47;0.47;;;7.80;99.90;7.60;100599.00;;;;4934894;28;88346;-71
2024/02/19 06:07:36;;;;;;;0.63;0.30;;;7.80;99.90;7.50;100607.00;;;;4929904;28;117829;-69
2024/02/19 06:10:06;;;;;;;1.50;0.60;;;7.70;99.90;7.50;100601.00;;;;4935183;28;87704;-70
2024/02/19 06:12:32;;;;;;;0.73;0.37;;;7.70;99.90;7.50;100605.00;;;;4929777;28;87796;-69
2024/02/19 06:14:58;;;;;;;0.83;0.83;;;7.60;99.90;7.40;100627.00;;;;4934121;28;108418;-69
2024/02/19 06:17:23;;;;;;;0.73;0.73;;;7.60;99.90;7.40;100609.00;;;;4931796;28;88462;-69
2024/02/19 06:19:49;;;;;;;0.43;0.43;;;7.50;99.90;7.40;100614.00;;;;4933474;28;113148;-70
2024/02/19 06:22:15;;;;;;;0.77;0.63;;;7.50;99.90;7.30;100617.00;;;;4933345;28;110204;-70
2024/02/19 06:24:40;;;;;;;0.80;0.70;;;7.60;99.90;7.30;100624.00;;;;4932817;28;87969;-69
2024/02/19 06:27:09;;;;;;;0.77;0.40;;;8.00;99.90;7.30;100631.00;;;;4930015;28;117379;-70
2024/02/19 06:29:34;;;;;;;0.47;0.30;;;7.50;99.90;7.30;100629.00;;;;4934102;28;88298;-69
2024/02/19 06:32:00;;;;;;;0.50;0.50;;;7.50;99.90;7.30;100634.00;;;;4930986;28;89099;-68
2024/02/19 06:34:31;;;;;;;0.40;0.27;;;7.50;99.90;7.30;100644.00;;;;4929351;28;88097;-70
2024/02/19 06:36:56;;;;;;;0.57;0.50;;;7.40;99.90;7.20;100649.00;;;;4932638;28;88565;-70
2024/02/19 06:39:22;;;;;;;0.53;0.50;;;7.40;99.90;7.20;100655.00;;;;4924755;28;116119;-69
2024/02/19 06:41:48;;;;;;;0.20;0.20;;;7.40;99.90;7.20;100651.00;;;;4926791;28;87913;-68
2024/02/19 06:44:13;;;;;;;0.40;0.40;;;7.40;99.90;7.20;100658.00;;;;4930136;28;109228;-68
2024/02/19 06:46:39;;;;;;;0.83;0.50;;;7.40;99.90;7.20;100661.00;;;;4930141;28;117710;-68
2024/02/19 06:49:05;;;;;;;0.30;0.30;;;7.30;99.90;7.20;100675.00;;;;4931030;28;88228;-67
2024/02/19 06:51:30;;;;;;;0.60;0.37;;;7.30;99.90;7.10;100674.00;;;;4927576;28;110157;-70
2024/02/19 06:53:56;;;;;;;0.40;0.30;;;7.30;99.90;7.10;100678.00;;;;4928270;28;108646;-70
2024/02/19 06:56:22;;;;;;;0.40;0.40;;;7.60;99.90;7.10;100678.00;;;;4930908;28;102571;-71
2024/02/19 06:58:47;;;;;;;0.60;0.33;;;7.40;99.90;7.10;100686.00;;;;4926077;28;116059;-67
2024/02/19 07:01:14;;;;;;;1.00;0.47;;;7.30;99.90;7.10;100692.00;;;;4924937;28;108554;-69
2024/02/19 07:03:44;;;;;;;0.50;0.40;;;7.30;99.90;7.10;100679.00;;;;4929291;28;88970;-69
2024/02/19 07:06:09;;;;;;;0.23;0.23;;;7.40;99.90;7.10;100697.00;;;;4930033;28;107433;-67
2024/02/19 07:08:35;;;;;;;0.43;0.43;;;7.30;99.90;7.10;100686.00;;;;4926551;28;106120;-68
2024/02/19 07:11:01;;;;;;;1.30;0.57;;;7.30;99.90;7.10;100698.00;;;;4926783;28;111390;-68
2024/02/19 07:13:26;;;;;;;1.27;0.60;;;7.30;99.90;7.10;100696.00;;;;4928919;28;88159;-68
2024/02/19 07:15:52;;;;;;;0.50;0.30;;;7.10;99.90;7.10;100702.00;;;;4929902;28;116664;-68
2024/02/19 07:18:17;;;;;;;0.80;0.30;;;7.30;99.90;7.10;100698.00;;;;4930394;28;115380;-69
2024/02/19 07:20:43;;;;;;;1.37;0.57;;;7.30;99.90;7.10;100706.00;;;;4935564;28;109467;-69
2024/02/19 07:23:09;;;;;;;1.30;0.67;;;7.30;99.90;7.10;100715.00;;;;4931410;28;88035;-68
2024/02/19 07:25:34;;;;;;;0.40;0.40;;;7.20;99.90;7.10;100710.00;;;;4931873;28;117731;-66
2024/02/19 07:28:00;;;;;;;0.30;0.30;;;7.70;99.90;7.10;100706.00;;;;4932513;28;113455;-66
2024/02/19 07:30:26;;;;;;;0.30;0.27;;;7.30;99.90;7.10;100712.00;;;;4937794;28;87927;-68
2024/02/19 07:32:52;;;;;;;0.20;0.20;;;7.20;99.90;7.10;100715.00;;;;4931796;28;108872;-68
2024/02/19 07:35:17;;;;;;;0.40;0.40;;;7.20;99.90;7.10;100720.00;;;;4932831;28;102478;-66
2024/02/19 07:37:43;;;;;;;0.60;0.50;;;7.40;99.90;7.10;100715.00;;;;4935656;28;106142;-66
2024/02/19 07:40:09;;;;;;;0.30;0.30;;;7.20;99.90;7.10;100713.00;;;;4934147;28;111220;-67
2024/02/19 07:42:36;;;;;;;0.40;0.30;;;7.20;99.90;7.10;100725.00;;;;4935889;28;89025;-66
2024/02/19 07:45:05;;;;;;;0.30;0.30;;;7.20;99.90;7.10;100721.00;;;;4933810;28;87953;-68
2024/02/19 07:47:31;;;;;;;0.37;0.30;;;7.30;99.90;7.10;100719.00;;;;4930044;28;88611;-68
2024/02/19 07:49:56;;;;;;;0.30;0.30;;;7.70;99.90;7.20;100731.00;;;;4933021;28;111012;-68
2024/02/19 07:52:22;;;;;;;0.30;0.30;;;7.40;99.90;7.20;100731.00;;;;4928972;28;106493;-67
2024/02/19 07:54:48;;;;;;;0.50;0.40;;;7.30;99.90;7.20;100741.00;;;;4936234;28;88433;-66
2024/02/19 07:57:14;;;;;;;0.20;0.20;;;7.30;99.90;7.20;100743.00;;;;4935308;28;117750;-67
2024/02/19 07:59:39;;;;;;;0.40;0.37;;;7.30;99.90;7.20;100754.00;;;;4933648;28;96027;-66
2024/02/19 08:02:06;;;;;;;0.63;0.43;;;7.30;99.90;7.20;100737.00;;;;4930941;28;108336;-67
2024/02/19 08:04:32;;;;;;;0.37;0.37;;;7.40;99.90;7.20;100738.00;;;;4934095;28;88842;-66
2024/02/19 08:06:57;;;;;;;0.50;0.40;;;7.30;99.90;7.20;100753.00;;;;4936436;28;87745;-67
2024/02/19 08:09:23;;;;;;;0.40;0.40;;;7.40;99.90;7.20;100759.00;;;;4931386;28;87193;-68
2024/02/19 08:11:50;;;;;;;0.10;0.10;;;7.30;99.90;7.20;100781.00;;;;4931426;28;108232;-68
2024/02/19 08:14:15;;;;;;;0.30;0.30;;;7.40;99.90;7.20;100758.00;;;;4931777;28;88917;-68
2024/02/19 08:16:41;;;;;;;0.30;0.30;;;7.30;99.90;7.20;100763.00;;;;4933413;28;116284;-68
2024/02/19 08:19:06;;;;;;;0.10;0.10;;;7.30;99.90;7.20;100786.00;;;;4934987;28;108489;-68
2024/02/19 08:21:32;;;;;;;0.47;0.20;;;7.30;99.90;7.20;100784.00;;;;4932012;28;95834;-67
2024/02/19 08:23:58;;;;;;;0.63;0.40;;;7.40;99.90;7.20;100792.00;;;;4927574;28;117189;-68
2024/02/19 08:26:23;;;;;;;0.20;0.20;;;7.40;99.90;7.20;100796.00;;;;4931268;28;116814;-69
2024/02/19 08:28:49;;;;;;;0.30;0.30;;;7.30;99.90;7.20;100795.00;;;;4929941;28;109739;-70
2024/02/19 08:31:15;;;;;;;0.67;0.30;;;7.30;99.90;7.20;100805.00;;;;4934841;28;107875;-69
2024/02/19 08:33:40;;;;;;;0.17;0.17;;;7.30;99.90;7.10;100797.00;;;;4933508;28;116992;-70
2024/02/19 08:36:06;;;;;;;0.73;0.30;;;7.30;99.90;7.10;100793.00;;;;4933666;28;99559;-70
2024/02/19 08:38:33;;;;;;;0.20;0.20;;;7.30;99.90;7.10;100803.00;;;;4929259;28;110683;-68
2024/02/19 08:40:59;;;;;;;0.30;0.17;;;7.30;99.90;7.10;100811.00;;;;4932351;28;89124;-67
2024/02/19 08:43:24;;;;;;;0.30;0.30;;;7.70;99.90;7.10;100814.00;;;;4928492;28;107879;-68
2024/02/19 08:45:50;;;;;;;0.30;0.30;;;7.20;99.90;7.10;100816.00;;;;4928723;28;89653;-69
2024/02/19 08:48:16;;;;;;;0.43;0.43;;;7.30;99.90;7.20;100832.00;;;;4931713;28;88463;-68
2024/02/19 08:50:43;;;;;;;0.50;0.50;;;7.70;99.90;7.20;100829.00;;;;4933056;28;87762;-68
2024/02/19 08:53:09;;;;;;;1.33;0.50;;;7.30;99.90;7.10;100826.00;;;;4933095;28;89275;-68
2024/02/19 08:55:34;;;;;;;0.10;0.10;;;7.60;99.90;7.10;100825.00;;;;4934543;28;116938;-69
2024/02/19 08:58:00;;;;;;;0.10;0.10;;;7.30;99.90;7.10;100851.00;;;;4931831;28;87253;-68
2024/02/19 09:00:26;;;;;;;0.30;0.30;;;7.20;99.90;7.10;100847.00;;;;4930251;28;92774;-70
2024/02/19 09:02:52;;;;;;;0.20;0.20;;;7.20;99.90;7.10;100837.00;;;;4933271;28;118275;-69
2024/02/19 09:05:19;;;;;;;0.60;0.47;;;7.20;99.90;7.10;100849.00;;;;4929519;28;88831;-69
2024/02/19 09:07:46;;;;;;;0.40;0.30;;;7.20;99.90;7.10;100862.00;;;;4938157;28;87586;-70
2024/02/19 09:10:12;;;;;;;0.73;0.47;;;7.30;99.90;7.10;100869.00;;;;4931684;28;87896;-69
2024/02/19 09:12:38;;;;;;;0.50;0.50;;;7.20;99.90;7.20;100861.00;;;;4927794;28;91152;-68
2024/02/19 09:15:04;;;;;;;0.20;0.20;;;7.50;99.90;7.20;100869.00;;;;4930259;28;117340;-70
2024/02/19 09:17:30;;;;;;;1.40;0.30;;;7.30;99.90;7.20;100881.00;;;;4931708;28;87800;-68
2024/02/19 09:19:56;;;;;;;0.17;0.17;;;7.50;99.90;7.20;100882.00;;;;4933353;28;108239;-69
2024/02/19 09:22:22;;;;;;;0.17;0.17;;;7.30;99.90;7.10;100885.00;;;;4932989;28;88611;-68
2024/02/19 09:24:48;;;;;;;0.17;0.17;;;7.30;99.90;7.10;100884.00;;;;4931702;28;87724;-70
2024/02/19 09:27:16;;;;;;;0.40;0.37;;;7.30;99.90;7.20;100881.00;;;;4936106;28;101999;-68
2024/02/19 09:29:42;;;;;;;0.10;0.10;;;7.30;99.90;7.20;100891.00;;;;4929851;28;88874;-68
2024/02/19 09:32:08;;;;;;;0.20;0.20;;;7.40;99.90;7.20;100884.00;;;;4927567;28;88912;-68
2024/02/19 09:34:35;;;;;;;0.10;0.10;;;7.40;99.90;7.20;100899.00;;;;4930179;28;88064;-70
2024/02/19 09:37:02;;;;;;;0.40;0.40;;;7.30;99.90;7.20;100896.00;;;;4933035;28;88275;-69
2024/02/19 09:39:28;;;;;;;0.67;0.30;;;7.30;99.90;7.30;100906.00;;;;4933745;28;88179;-68
2024/02/19 09:41:54;;;;;;;0.10;0.10;;;7.40;99.90;7.40;100899.00;;;;4932520;28;97972;-68
2024/02/19 09:44:20;;;;;;;0.23;0.20;;;7.60;99.90;7.40;100900.00;;;;4933420;28;115041;-68
2024/02/19 09:46:48;;;;;;;0.10;0.10;;;7.60;99.90;7.40;100910.00;;;;4934458;28;99081;-70
2024/02/19 09:49:17;;;;;;;0.10;0.10;;;7.50;99.90;7.50;100899.00;;;;4933227;28;88268;-70
2024/02/19 09:51:53;;;;;;;0.10;0.10;;;7.60;99.90;7.60;100901.00;;;;4930321;28;104417;-71
2024/02/19 09:54:21;;;;;;;0.10;0.10;;;7.70;99.90;7.60;100907.00;;;;4927823;28;88774;-70
2024/02/19 09:56:50;;;;;;;0.30;0.20;;;7.70;99.90;7.60;100904.00;;;;4936287;28;87930;-70
2024/02/19 09:59:16;;;;;;;0.10;0.10;;;7.80;99.90;7.70;100918.00;;;;4932142;28;88214;-71
2024/02/19 10:01:42;;;;;;;0.10;0.10;;;7.80;99.90;7.70;100925.00;;;;4928566;28;106295;-71
2024/02/19 10:04:10;;;;;;;0.20;0.20;;;7.70;99.90;7.70;100942.00;;;;4931346;28;88758;-72
2024/02/19 10:06:36;;;;;;;0.30;0.20;;;7.80;99.90;7.70;100938.00;;;;4929172;28;87823;-72
2024/02/19 10:09:08;;;;;;;0.10;0.10;;;7.90;99.90;7.60;100943.00;;;;4933416;28;87990;-71
2024/02/19 10:11:35;;;;;;;0.00;0.00;;;7.80;99.90;7.60;100940.00;;;;4929152;28;87517;-71
2024/02/19 10:14:03;;;;;;;0.30;0.10;;;7.70;99.90;7.50;100950.00;;;;4932438;28;87956;-70
2024/02/19 10:16:29;;;;;;;0.10;0.10;;;7.70;99.90;7.40;100951.00;;;;4944222;28;87826;-69
2024/02/19 10:19:08;;;;;;;0.00;0.00;;;7.60;99.90;7.30;100948.00;;;;4928690;28;88618;-69
2024/02/19 10:21:34;;;;;;;0.10;0.10;;;7.50;99.90;7.30;100953.00;;;;4936520;28;88202;-68
2024/02/19 10:24:00;;;;;;;0.10;0.10;;;7.50;99.90;7.40;100960.00;;;;4928227;28;88664;-68
2024/02/19 10:26:26;;;;;;;0.10;0.10;;;7.60;99.90;7.40;100959.00;;;;4929259;28;109521;-69
2024/02/19 10:28:57;;;;;;;0.10;0.10;;;7.50;99.90;7.40;100960.00;;;;4933493;28;108455;-68
2024/02/19 10:31:31;;;;;;;0.40;0.20;;;7.70;99.90;7.40;100971.00;;;;4937412;28;87646;-68
2024/02/19 10:33:57;;;;;;;0.10;0.10;;;7.50;99.90;7.40;100952.00;;;;4931548;28;88948;-68
2024/02/19 10:36:26;;;;;;;0.20;0.20;;;7.50;99.90;7.50;100967.00;;;;4937837;28;87081;-69
2024/02/19 10:38:52;;;;;;;0.10;0.10;;;7.60;99.90;7.50;100970.00;;;;4946640;28;109095;-66
2024/02/19 10:41:21;;;;;;;0.00;0.00;;;7.60;99.90;7.60;100973.00;;;;4928552;28;117777;-67
2024/02/19 10:43:47;;;;;;;0.10;0.10;;;7.70;99.90;7.70;100972.00;;;;4928025;28;88928;-68
2024/02/19 10:46:19;;;;;;;4.07;0.20;;;7.80;99.90;7.70;100983.00;;;;4932666;28;109329;-66
2024/02/19 10:48:50;;;;;;;0.00;0.00;;;7.80;99.90;7.70;100969.00;;;;4926746;28;88013;-67
2024/02/19 10:51:18;;;;;;;0.40;0.20;;;7.80;99.90;7.70;100977.00;;;;4927014;28;88331;-67
2024/02/19 10:53:57;;;;;;;0.20;0.20;;;7.90;99.90;7.70;100965.00;;;;4926219;28;110077;-67